sensor_id;sensor_type;location;lat;lon;timestamp;P1;durP1;ratioP1;P2;durP2;ratioP2
20022;SDS011;10172;42.054;24.546;2023-05-14T00:00:08;3.97;;;2.25;;
20022;SDS011;10172;42.054;24.546;2023-05-14T00:02:34;4.22;;;1.90;;
20022;SDS011;10172;42.054;24.546;2023-05-14T00:04:59;2.55;;;1.98;;
20022;SDS011;10172;42.054;24.546;2023-05-14T00:07:24;5.00;;;2.15;;
20022;SDS011;10172;42.054;24.546;2023-05-14T00:09:54;3.78;;;2.75;;
20022;SDS011;10172;42.054;24.546;2023-05-14T00:12:23;3.70;;;2.30;;
20022;SDS011;10172;42.054;24.546;2023-05-14T00:14:48;6.18;;;2.47;;
20022;SDS011;10172;42.054;24.546;2023-05-14T00:17:14;3.38;;;1.80;;
20022;SDS011;10172;42.054;24.546;2023-05-14T00:19:39;3.63;;;1.83;;
20022;SDS011;10172;42.054;24.546;2023-05-14T00:22:09;3.55;;;2.28;;
20022;SDS011;10172;42.054;24.546;2023-05-14T00:24:35;4.57;;;2.20;;
20022;SDS011;10172;42.054;24.546;2023-05-14T00:27:00;4.38;;;2.05;;
20022;SDS011;10172;42.054;24.546;2023-05-14T00:29:26;4.35;;;2.38;;
20022;SDS011;10172;42.054;24.546;2023-05-14T00:31:52;4.15;;;2.20;;
20022;SDS011;10172;42.054;24.546;2023-05-14T00:34:17;3.47;;;2.10;;
20022;SDS011;10172;42.054;24.546;2023-05-14T00:36:43;2.38;;;1.98;;
20022;SDS011;10172;42.054;24.546;2023-05-14T00:39:08;3.78;;;2.00;;
20022;SDS011;10172;42.054;24.546;2023-05-14T00:41:34;4.10;;;2.25;;
20022;SDS011;10172;42.054;24.546;2023-05-14T00:43:59;3.85;;;1.98;;
20022;SDS011;10172;42.054;24.546;2023-05-14T00:46:25;3.10;;;2.35;;
20022;SDS011;10172;42.054;24.546;2023-05-14T00:48:51;4.82;;;2.13;;
20022;SDS011;10172;42.054;24.546;2023-05-14T00:51:17;4.70;;;2.55;;
20022;SDS011;10172;42.054;24.546;2023-05-14T00:53:43;3.72;;;2.40;;
20022;SDS011;10172;42.054;24.546;2023-05-14T00:56:09;4.68;;;2.50;;
20022;SDS011;10172;42.054;24.546;2023-05-14T00:58:35;5.32;;;2.35;;
20022;SDS011;10172;42.054;24.546;2023-05-14T01:01:01;4.93;;;2.28;;
20022;SDS011;10172;42.054;24.546;2023-05-14T01:03:27;2.65;;;2.00;;
20022;SDS011;10172;42.054;24.546;2023-05-14T01:16:32;4.43;;;2.30;;
20022;SDS011;10172;42.054;24.546;2023-05-14T01:18:58;5.63;;;2.72;;
20022;SDS011;10172;42.054;24.546;2023-05-14T01:24:00;4.32;;;2.28;;
20022;SDS011;10172;42.054;24.546;2023-05-14T01:26:25;4.10;;;2.53;;
20022;SDS011;10172;42.054;24.546;2023-05-14T01:28:52;5.18;;;2.53;;
20022;SDS011;10172;42.054;24.546;2023-05-14T01:31:21;3.40;;;2.33;;
20022;SDS011;10172;42.054;24.546;2023-05-14T01:33:51;4.43;;;2.70;;
20022;SDS011;10172;42.054;24.546;2023-05-14T01:36:20;3.95;;;2.53;;
20022;SDS011;10172;42.054;24.546;2023-05-14T01:38:47;6.18;;;2.90;;
20022;SDS011;10172;42.054;24.546;2023-05-14T01:41:15;6.78;;;4.10;;
20022;SDS011;10172;42.054;24.546;2023-05-14T01:43:42;6.20;;;2.65;;
20022;SDS011;10172;42.054;24.546;2023-05-14T01:46:08;4.50;;;2.65;;
20022;SDS011;10172;42.054;24.546;2023-05-14T01:48:34;5.22;;;2.60;;
20022;SDS011;10172;42.054;24.546;2023-05-14T01:50:59;4.50;;;2.65;;
20022;SDS011;10172;42.054;24.546;2023-05-14T01:53:26;3.95;;;2.60;;
20022;SDS011;10172;42.054;24.546;2023-05-14T01:55:51;5.75;;;2.38;;
20022;SDS011;10172;42.054;24.546;2023-05-14T01:58:17;3.50;;;2.08;;
20022;SDS011;10172;42.054;24.546;2023-05-14T02:00:42;3.60;;;2.13;;
20022;SDS011;10172;42.054;24.546;2023-05-14T02:03:08;4.63;;;2.35;;
20022;SDS011;10172;42.054;24.546;2023-05-14T02:05:33;5.88;;;2.63;;
20022;SDS011;10172;42.054;24.546;2023-05-14T02:07:59;5.75;;;3.22;;
20022;SDS011;10172;42.054;24.546;2023-05-14T02:10:24;5.30;;;3.40;;
20022;SDS011;10172;42.054;24.546;2023-05-14T02:12:50;6.22;;;3.88;;
20022;SDS011;10172;42.054;24.546;2023-05-14T02:15:15;6.25;;;3.60;;
20022;SDS011;10172;42.054;24.546;2023-05-14T02:17:41;7.45;;;3.67;;
20022;SDS011;10172;42.054;24.546;2023-05-14T02:20:06;7.32;;;3.72;;
20022;SDS011;10172;42.054;24.546;2023-05-14T02:22:34;6.60;;;3.72;;
20022;SDS011;10172;42.054;24.546;2023-05-14T02:24:59;10.52;;;3.90;;
20022;SDS011;10172;42.054;24.546;2023-05-14T02:27:25;9.30;;;4.05;;
20022;SDS011;10172;42.054;24.546;2023-05-14T02:29:51;6.18;;;2.90;;
20022;SDS011;10172;42.054;24.546;2023-05-14T02:32:17;5.53;;;2.60;;
20022;SDS011;10172;42.054;24.546;2023-05-14T02:34:42;5.45;;;2.63;;
20022;SDS011;10172;42.054;24.546;2023-05-14T02:37:09;4.15;;;2.90;;
20022;SDS011;10172;42.054;24.546;2023-05-14T02:39:34;6.07;;;3.75;;
20022;SDS011;10172;42.054;24.546;2023-05-14T02:42:00;8.05;;;4.10;;
20022;SDS011;10172;42.054;24.546;2023-05-14T02:44:25;8.27;;;3.92;;
20022;SDS011;10172;42.054;24.546;2023-05-14T02:46:50;6.85;;;4.15;;
20022;SDS011;10172;42.054;24.546;2023-05-14T02:49:16;5.43;;;3.80;;
20022;SDS011;10172;42.054;24.546;2023-05-14T02:51:41;6.82;;;4.30;;
20022;SDS011;10172;42.054;24.546;2023-05-14T02:54:07;8.18;;;3.92;;
20022;SDS011;10172;42.054;24.546;2023-05-14T02:56:32;5.43;;;3.55;;
20022;SDS011;10172;42.054;24.546;2023-05-14T02:58:58;13.25;;;3.80;;
20022;SDS011;10172;42.054;24.546;2023-05-14T03:01:23;6.05;;;3.63;;
20022;SDS011;10172;42.054;24.546;2023-05-14T03:03:48;10.27;;;4.60;;
20022;SDS011;10172;42.054;24.546;2023-05-14T03:06:14;6.90;;;4.40;;
20022;SDS011;10172;42.054;24.546;2023-05-14T03:08:39;4.88;;;3.15;;
20022;SDS011;10172;42.054;24.546;2023-05-14T03:11:05;7.72;;;3.35;;
20022;SDS011;10172;42.054;24.546;2023-05-14T03:13:31;8.05;;;4.03;;
20022;SDS011;10172;42.054;24.546;2023-05-14T03:15:56;5.03;;;3.00;;
20022;SDS011;10172;42.054;24.546;2023-05-14T03:18:22;6.07;;;3.58;;
20022;SDS011;10172;42.054;24.546;2023-05-14T03:20:47;5.55;;;3.42;;
20022;SDS011;10172;42.054;24.546;2023-05-14T03:23:13;6.05;;;3.53;;
20022;SDS011;10172;42.054;24.546;2023-05-14T03:25:39;5.75;;;3.35;;
20022;SDS011;10172;42.054;24.546;2023-05-14T03:28:05;5.50;;;3.30;;
20022;SDS011;10172;42.054;24.546;2023-05-14T03:30:30;7.18;;;4.10;;
20022;SDS011;10172;42.054;24.546;2023-05-14T03:32:56;7.50;;;3.90;;
20022;SDS011;10172;42.054;24.546;2023-05-14T03:35:21;8.10;;;4.20;;
20022;SDS011;10172;42.054;24.546;2023-05-14T03:37:47;7.55;;;3.80;;
20022;SDS011;10172;42.054;24.546;2023-05-14T03:40:13;5.70;;;4.07;;
20022;SDS011;10172;42.054;24.546;2023-05-14T03:42:38;6.90;;;3.90;;
20022;SDS011;10172;42.054;24.546;2023-05-14T03:45:04;6.30;;;4.53;;
20022;SDS011;10172;42.054;24.546;2023-05-14T03:47:31;6.30;;;4.63;;
20022;SDS011;10172;42.054;24.546;2023-05-14T03:49:56;7.10;;;3.95;;
20022;SDS011;10172;42.054;24.546;2023-05-14T03:52:21;7.53;;;4.60;;
20022;SDS011;10172;42.054;24.546;2023-05-14T03:54:47;7.85;;;4.40;;
20022;SDS011;10172;42.054;24.546;2023-05-14T03:57:12;14.20;;;7.32;;
20022;SDS011;10172;42.054;24.546;2023-05-14T03:59:38;7.55;;;5.50;;
20022;SDS011;10172;42.054;24.546;2023-05-14T04:02:03;7.03;;;4.63;;
20022;SDS011;10172;42.054;24.546;2023-05-14T04:04:29;6.03;;;4.05;;
20022;SDS011;10172;42.054;24.546;2023-05-14T04:06:54;6.65;;;4.25;;
20022;SDS011;10172;42.054;24.546;2023-05-14T04:09:20;7.53;;;4.38;;
20022;SDS011;10172;42.054;24.546;2023-05-14T04:11:45;6.30;;;4.13;;
20022;SDS011;10172;42.054;24.546;2023-05-14T04:14:11;6.85;;;4.40;;
20022;SDS011;10172;42.054;24.546;2023-05-14T04:16:36;9.80;;;4.45;;
20022;SDS011;10172;42.054;24.546;2023-05-14T04:19:02;7.90;;;4.95;;
20022;SDS011;10172;42.054;24.546;2023-05-14T04:21:29;6.72;;;4.07;;
20022;SDS011;10172;42.054;24.546;2023-05-14T04:23:55;9.55;;;4.55;;
20022;SDS011;10172;42.054;24.546;2023-05-14T04:26:20;7.10;;;4.15;;
20022;SDS011;10172;42.054;24.546;2023-05-14T04:28:46;6.65;;;4.00;;
20022;SDS011;10172;42.054;24.546;2023-05-14T04:31:11;5.75;;;3.60;;
20022;SDS011;10172;42.054;24.546;2023-05-14T04:33:37;6.97;;;4.15;;
20022;SDS011;10172;42.054;24.546;2023-05-14T04:36:03;5.07;;;3.67;;
20022;SDS011;10172;42.054;24.546;2023-05-14T04:38:29;6.07;;;4.28;;
20022;SDS011;10172;42.054;24.546;2023-05-14T04:40:55;7.10;;;4.60;;
20022;SDS011;10172;42.054;24.546;2023-05-14T04:43:21;8.30;;;4.75;;
20022;SDS011;10172;42.054;24.546;2023-05-14T04:45:47;7.35;;;4.72;;
20022;SDS011;10172;42.054;24.546;2023-05-14T04:48:12;5.90;;;3.58;;
20022;SDS011;10172;42.054;24.546;2023-05-14T04:50:37;5.82;;;3.67;;
20022;SDS011;10172;42.054;24.546;2023-05-14T04:53:03;5.68;;;3.53;;
20022;SDS011;10172;42.054;24.546;2023-05-14T04:55:28;6.60;;;4.00;;
20022;SDS011;10172;42.054;24.546;2023-05-14T04:57:54;8.50;;;3.90;;
20022;SDS011;10172;42.054;24.546;2023-05-14T05:00:19;6.47;;;4.05;;
20022;SDS011;10172;42.054;24.546;2023-05-14T05:02:46;6.32;;;3.65;;
20022;SDS011;10172;42.054;24.546;2023-05-14T05:05:11;5.50;;;3.90;;
20022;SDS011;10172;42.054;24.546;2023-05-14T05:07:37;4.65;;;3.80;;
20022;SDS011;10172;42.054;24.546;2023-05-14T05:10:02;8.95;;;5.85;;
20022;SDS011;10172;42.054;24.546;2023-05-14T05:12:28;7.20;;;4.32;;
20022;SDS011;10172;42.054;24.546;2023-05-14T05:14:57;9.02;;;4.57;;
20022;SDS011;10172;42.054;24.546;2023-05-14T05:17:22;6.68;;;3.88;;
20022;SDS011;10172;42.054;24.546;2023-05-14T05:19:48;6.10;;;3.85;;
20022;SDS011;10172;42.054;24.546;2023-05-14T05:22:14;7.72;;;4.40;;
20022;SDS011;10172;42.054;24.546;2023-05-14T05:24:40;8.85;;;4.97;;
20022;SDS011;10172;42.054;24.546;2023-05-14T05:27:05;6.90;;;3.85;;
20022;SDS011;10172;42.054;24.546;2023-05-14T05:29:31;42.17;;;32.42;;
20022;SDS011;10172;42.054;24.546;2023-05-14T05:31:56;14.90;;;11.55;;
20022;SDS011;10172;42.054;24.546;2023-05-14T05:34:22;9.05;;;6.03;;
20022;SDS011;10172;42.054;24.546;2023-05-14T05:36:47;9.95;;;6.50;;
20022;SDS011;10172;42.054;24.546;2023-05-14T05:39:13;8.40;;;3.92;;
20022;SDS011;10172;42.054;24.546;2023-05-14T05:41:38;6.38;;;3.72;;
20022;SDS011;10172;42.054;24.546;2023-05-14T05:44:04;9.45;;;4.60;;
20022;SDS011;10172;42.054;24.546;2023-05-14T05:46:30;4.60;;;3.40;;
20022;SDS011;10172;42.054;24.546;2023-05-14T05:48:55;6.07;;;3.67;;
20022;SDS011;10172;42.054;24.546;2023-05-14T05:51:21;5.88;;;3.08;;
20022;SDS011;10172;42.054;24.546;2023-05-14T05:53:46;7.43;;;4.28;;
20022;SDS011;10172;42.054;24.546;2023-05-14T05:56:12;7.15;;;3.83;;
20022;SDS011;10172;42.054;24.546;2023-05-14T05:58:37;5.68;;;3.25;;
20022;SDS011;10172;42.054;24.546;2023-05-14T06:01:03;8.88;;;3.70;;
20022;SDS011;10172;42.054;24.546;2023-05-14T06:03:28;7.88;;;3.80;;
20022;SDS011;10172;42.054;24.546;2023-05-14T06:05:54;7.53;;;4.07;;
20022;SDS011;10172;42.054;24.546;2023-05-14T06:08:19;5.90;;;3.42;;
20022;SDS011;10172;42.054;24.546;2023-05-14T06:10:44;7.40;;;4.47;;
20022;SDS011;10172;42.054;24.546;2023-05-14T06:13:10;6.13;;;4.25;;
20022;SDS011;10172;42.054;24.546;2023-05-14T06:15:36;6.55;;;4.05;;
20022;SDS011;10172;42.054;24.546;2023-05-14T06:18:01;6.28;;;3.67;;
20022;SDS011;10172;42.054;24.546;2023-05-14T06:20:27;6.57;;;4.25;;
20022;SDS011;10172;42.054;24.546;2023-05-14T06:22:52;7.75;;;4.93;;
20022;SDS011;10172;42.054;24.546;2023-05-14T06:25:18;6.50;;;4.35;;
20022;SDS011;10172;42.054;24.546;2023-05-14T06:27:43;8.52;;;4.50;;
20022;SDS011;10172;42.054;24.546;2023-05-14T06:30:09;7.63;;;4.90;;
20022;SDS011;10172;42.054;24.546;2023-05-14T06:32:35;10.18;;;5.38;;
20022;SDS011;10172;42.054;24.546;2023-05-14T06:35:01;8.73;;;5.28;;
20022;SDS011;10172;42.054;24.546;2023-05-14T06:37:26;7.72;;;5.40;;
20022;SDS011;10172;42.054;24.546;2023-05-14T06:39:52;8.60;;;5.05;;
20022;SDS011;10172;42.054;24.546;2023-05-14T06:42:17;7.88;;;4.40;;
20022;SDS011;10172;42.054;24.546;2023-05-14T06:44:43;6.57;;;4.80;;
20022;SDS011;10172;42.054;24.546;2023-05-14T06:47:09;7.65;;;4.50;;
20022;SDS011;10172;42.054;24.546;2023-05-14T06:49:35;10.75;;;5.00;;
20022;SDS011;10172;42.054;24.546;2023-05-14T06:52:01;8.07;;;4.60;;
20022;SDS011;10172;42.054;24.546;2023-05-14T06:54:27;6.97;;;4.82;;
20022;SDS011;10172;42.054;24.546;2023-05-14T06:56:53;8.73;;;5.10;;
20022;SDS011;10172;42.054;24.546;2023-05-14T06:59:19;9.48;;;5.32;;
20022;SDS011;10172;42.054;24.546;2023-05-14T07:01:44;11.40;;;6.90;;
20022;SDS011;10172;42.054;24.546;2023-05-14T07:04:10;9.73;;;5.90;;
20022;SDS011;10172;42.054;24.546;2023-05-14T07:06:35;9.25;;;5.55;;
20022;SDS011;10172;42.054;24.546;2023-05-14T07:09:01;9.57;;;4.65;;
20022;SDS011;10172;42.054;24.546;2023-05-14T07:11:27;8.95;;;5.20;;
20022;SDS011;10172;42.054;24.546;2023-05-14T07:13:52;12.60;;;6.10;;
20022;SDS011;10172;42.054;24.546;2023-05-14T07:16:18;8.52;;;5.93;;
20022;SDS011;10172;42.054;24.546;2023-05-14T07:18:43;17.35;;;10.82;;
20022;SDS011;10172;42.054;24.546;2023-05-14T07:21:09;22.77;;;12.80;;
20022;SDS011;10172;42.054;24.546;2023-05-14T07:23:35;53.60;;;27.75;;
20022;SDS011;10172;42.054;24.546;2023-05-14T07:26:02;23.88;;;14.70;;
20022;SDS011;10172;42.054;24.546;2023-05-14T07:28:31;19.17;;;12.73;;
20022;SDS011;10172;42.054;24.546;2023-05-14T07:30:57;13.40;;;8.88;;
20022;SDS011;10172;42.054;24.546;2023-05-14T07:33:23;16.85;;;10.35;;
20022;SDS011;10172;42.054;24.546;2023-05-14T07:35:49;14.85;;;10.10;;
20022;SDS011;10172;42.054;24.546;2023-05-14T07:38:15;17.13;;;9.23;;
20022;SDS011;10172;42.054;24.546;2023-05-14T07:40:41;29.52;;;13.90;;
20022;SDS011;10172;42.054;24.546;2023-05-14T07:43:07;18.23;;;11.15;;
20022;SDS011;10172;42.054;24.546;2023-05-14T07:45:34;13.75;;;8.50;;
20022;SDS011;10172;42.054;24.546;2023-05-14T07:48:01;14.45;;;9.38;;
20022;SDS011;10172;42.054;24.546;2023-05-14T07:50:26;14.88;;;8.73;;
20022;SDS011;10172;42.054;24.546;2023-05-14T07:52:52;10.93;;;6.68;;
20022;SDS011;10172;42.054;24.546;2023-05-14T07:55:17;11.90;;;8.18;;
20022;SDS011;10172;42.054;24.546;2023-05-14T07:57:43;8.57;;;5.88;;
20022;SDS011;10172;42.054;24.546;2023-05-14T08:00:08;8.43;;;5.20;;
20022;SDS011;10172;42.054;24.546;2023-05-14T08:02:34;8.27;;;5.60;;
20022;SDS011;10172;42.054;24.546;2023-05-14T08:05:00;5.45;;;3.95;;
20022;SDS011;10172;42.054;24.546;2023-05-14T08:07:25;9.25;;;5.43;;
20022;SDS011;10172;42.054;24.546;2023-05-14T08:09:53;9.10;;;5.30;;
20022;SDS011;10172;42.054;24.546;2023-05-14T08:12:19;9.40;;;4.90;;
20022;SDS011;10172;42.054;24.546;2023-05-14T08:14:44;9.73;;;5.30;;
20022;SDS011;10172;42.054;24.546;2023-05-14T08:17:10;7.88;;;4.95;;
20022;SDS011;10172;42.054;24.546;2023-05-14T08:19:35;10.77;;;6.47;;
20022;SDS011;10172;42.054;24.546;2023-05-14T08:22:01;10.65;;;5.05;;
20022;SDS011;10172;42.054;24.546;2023-05-14T08:24:27;11.38;;;5.97;;
20022;SDS011;10172;42.054;24.546;2023-05-14T08:26:53;10.27;;;5.65;;
20022;SDS011;10172;42.054;24.546;2023-05-14T08:29:19;7.90;;;5.78;;
20022;SDS011;10172;42.054;24.546;2023-05-14T08:31:44;11.43;;;6.32;;
20022;SDS011;10172;42.054;24.546;2023-05-14T08:34:10;22.60;;;11.23;;
20022;SDS011;10172;42.054;24.546;2023-05-14T08:36:36;15.07;;;8.75;;
20022;SDS011;10172;42.054;24.546;2023-05-14T08:39:02;11.50;;;6.43;;
20022;SDS011;10172;42.054;24.546;2023-05-14T08:41:27;10.52;;;5.55;;
20022;SDS011;10172;42.054;24.546;2023-05-14T08:46:37;14.75;;;5.85;;
20022;SDS011;10172;42.054;24.546;2023-05-14T08:49:51;10.65;;;6.72;;
20022;SDS011;10172;42.054;24.546;2023-05-14T08:51:57;9.48;;;6.03;;
20022;SDS011;10172;42.054;24.546;2023-05-14T08:54:24;8.07;;;5.75;;
20022;SDS011;10172;42.054;24.546;2023-05-14T08:56:51;12.13;;;6.45;;
20022;SDS011;10172;42.054;24.546;2023-05-14T08:59:17;12.23;;;6.78;;
20022;SDS011;10172;42.054;24.546;2023-05-14T09:01:43;14.00;;;8.30;;
20022;SDS011;10172;42.054;24.546;2023-05-14T09:04:13;10.55;;;6.65;;
20022;SDS011;10172;42.054;24.546;2023-05-14T09:06:40;10.13;;;6.35;;
20022;SDS011;10172;42.054;24.546;2023-05-14T09:09:07;11.05;;;6.13;;
20022;SDS011;10172;42.054;24.546;2023-05-14T09:11:39;10.18;;;6.68;;
20022;SDS011;10172;42.054;24.546;2023-05-14T09:14:05;10.95;;;6.72;;
20022;SDS011;10172;42.054;24.546;2023-05-14T09:16:31;10.45;;;7.38;;
20022;SDS011;10172;42.054;24.546;2023-05-14T09:18:57;12.15;;;7.20;;
20022;SDS011;10172;42.054;24.546;2023-05-14T09:21:22;18.40;;;10.45;;
20022;SDS011;10172;42.054;24.546;2023-05-14T09:23:48;20.27;;;10.52;;
20022;SDS011;10172;42.054;24.546;2023-05-14T09:26:21;17.33;;;10.93;;
20022;SDS011;10172;42.054;24.546;2023-05-14T09:28:48;13.32;;;9.07;;
20022;SDS011;10172;42.054;24.546;2023-05-14T09:31:13;28.88;;;18.80;;
20022;SDS011;10172;42.054;24.546;2023-05-14T09:33:39;46.30;;;30.02;;
20022;SDS011;10172;42.054;24.546;2023-05-14T09:36:05;157.05;;;86.25;;
20022;SDS011;10172;42.054;24.546;2023-05-14T09:38:31;42.08;;;26.83;;
20022;SDS011;10172;42.054;24.546;2023-05-14T09:41:00;16.70;;;10.10;;
20022;SDS011;10172;42.054;24.546;2023-05-14T09:43:26;15.45;;;9.65;;
20022;SDS011;10172;42.054;24.546;2023-05-14T09:45:51;15.77;;;9.73;;
20022;SDS011;10172;42.054;24.546;2023-05-14T09:48:17;23.33;;;13.50;;
20022;SDS011;10172;42.054;24.546;2023-05-14T09:50:44;17.10;;;10.60;;
20022;SDS011;10172;42.054;24.546;2023-05-14T09:53:10;23.35;;;15.65;;
20022;SDS011;10172;42.054;24.546;2023-05-14T09:55:37;15.93;;;10.75;;
20022;SDS011;10172;42.054;24.546;2023-05-14T09:58:03;16.13;;;9.57;;
20022;SDS011;10172;42.054;24.546;2023-05-14T10:00:33;14.13;;;8.38;;
20022;SDS011;10172;42.054;24.546;2023-05-14T10:03:02;10.20;;;7.68;;
20022;SDS011;10172;42.054;24.546;2023-05-14T10:05:34;14.05;;;7.07;;
20022;SDS011;10172;42.054;24.546;2023-05-14T10:08:01;13.45;;;7.55;;
20022;SDS011;10172;42.054;24.546;2023-05-14T10:10:29;12.88;;;7.15;;
20022;SDS011;10172;42.054;24.546;2023-05-14T10:12:57;10.35;;;7.70;;
20022;SDS011;10172;42.054;24.546;2023-05-14T10:18:15;10.60;;;7.93;;
20022;SDS011;10172;42.054;24.546;2023-05-14T10:20:43;8.90;;;6.35;;
20022;SDS011;10172;42.054;24.546;2023-05-14T10:23:12;11.43;;;7.03;;
20022;SDS011;10172;42.054;24.546;2023-05-14T10:25:39;12.07;;;7.47;;
20022;SDS011;10172;42.054;24.546;2023-05-14T10:28:05;11.35;;;7.30;;
20022;SDS011;10172;42.054;24.546;2023-05-14T10:30:31;13.90;;;7.57;;
20022;SDS011;10172;42.054;24.546;2023-05-14T10:33:12;9.60;;;6.70;;
20022;SDS011;10172;42.054;24.546;2023-05-14T10:35:49;12.25;;;7.10;;
20022;SDS011;10172;42.054;24.546;2023-05-14T10:38:22;9.90;;;7.38;;
20022;SDS011;10172;42.054;24.546;2023-05-14T10:40:53;9.82;;;6.10;;
20022;SDS011;10172;42.054;24.546;2023-05-14T10:43:27;7.78;;;5.28;;
20022;SDS011;10172;42.054;24.546;2023-05-14T10:45:54;7.82;;;6.10;;
20022;SDS011;10172;42.054;24.546;2023-05-14T10:48:21;12.32;;;7.45;;
20022;SDS011;10172;42.054;24.546;2023-05-14T10:50:47;17.92;;;8.02;;
20022;SDS011;10172;42.054;24.546;2023-05-14T10:53:16;10.30;;;7.35;;
20022;SDS011;10172;42.054;24.546;2023-05-14T10:55:42;13.05;;;8.43;;
20022;SDS011;10172;42.054;24.546;2023-05-14T10:58:09;13.00;;;7.85;;
20022;SDS011;10172;42.054;24.546;2023-05-14T11:00:35;13.40;;;7.90;;
20022;SDS011;10172;42.054;24.546;2023-05-14T11:03:05;11.02;;;7.55;;
20022;SDS011;10172;42.054;24.546;2023-05-14T11:05:31;14.10;;;8.15;;
20022;SDS011;10172;42.054;24.546;2023-05-14T11:07:58;13.60;;;7.63;;
20022;SDS011;10172;42.054;24.546;2023-05-14T11:10:26;11.80;;;7.85;;
20022;SDS011;10172;42.054;24.546;2023-05-14T11:12:54;15.75;;;8.20;;
20022;SDS011;10172;42.054;24.546;2023-05-14T11:15:21;11.93;;;7.93;;
20022;SDS011;10172;42.054;24.546;2023-05-14T11:17:48;12.13;;;7.85;;
20022;SDS011;10172;42.054;24.546;2023-05-14T11:20:15;10.80;;;7.20;;
20022;SDS011;10172;42.054;24.546;2023-05-14T11:22:41;10.82;;;6.95;;
20022;SDS011;10172;42.054;24.546;2023-05-14T11:25:08;11.23;;;7.30;;
20022;SDS011;10172;42.054;24.546;2023-05-14T11:27:38;10.93;;;7.32;;
20022;SDS011;10172;42.054;24.546;2023-05-14T11:30:03;9.70;;;6.63;;
20022;SDS011;10172;42.054;24.546;2023-05-14T11:32:30;10.68;;;6.70;;
20022;SDS011;10172;42.054;24.546;2023-05-14T11:34:57;7.53;;;6.30;;
20022;SDS011;10172;42.054;24.546;2023-05-14T11:37:22;12.73;;;8.00;;
20022;SDS011;10172;42.054;24.546;2023-05-14T11:39:48;12.40;;;10.00;;
20022;SDS011;10172;42.054;24.546;2023-05-14T11:42:19;17.73;;;10.68;;
20022;SDS011;10172;42.054;24.546;2023-05-14T11:44:46;14.65;;;9.25;;
20022;SDS011;10172;42.054;24.546;2023-05-14T11:47:13;16.02;;;8.32;;
20022;SDS011;10172;42.054;24.546;2023-05-14T11:49:40;15.55;;;9.68;;
20022;SDS011;10172;42.054;24.546;2023-05-14T11:52:06;14.43;;;9.55;;
20022;SDS011;10172;42.054;24.546;2023-05-14T11:54:38;15.27;;;9.45;;
20022;SDS011;10172;42.054;24.546;2023-05-14T11:57:08;13.80;;;9.07;;
20022;SDS011;10172;42.054;24.546;2023-05-14T11:59:36;11.27;;;8.27;;
20022;SDS011;10172;42.054;24.546;2023-05-14T12:02:02;13.20;;;8.85;;
20022;SDS011;10172;42.054;24.546;2023-05-14T12:04:29;15.48;;;11.23;;
20022;SDS011;10172;42.054;24.546;2023-05-14T12:06:56;35.63;;;24.77;;
20022;SDS011;10172;42.054;24.546;2023-05-14T12:09:23;15.60;;;9.25;;
20022;SDS011;10172;42.054;24.546;2023-05-14T12:11:49;15.15;;;9.88;;
20022;SDS011;10172;42.054;24.546;2023-05-14T12:14:19;13.57;;;9.27;;
20022;SDS011;10172;42.054;24.546;2023-05-14T12:16:47;15.95;;;9.52;;
20022;SDS011;10172;42.054;24.546;2023-05-14T12:19:14;16.88;;;10.52;;
20022;SDS011;10172;42.054;24.546;2023-05-14T12:21:45;16.55;;;10.95;;
20022;SDS011;10172;42.054;24.546;2023-05-14T12:24:15;14.23;;;9.70;;
20022;SDS011;10172;42.054;24.546;2023-05-14T12:26:48;17.95;;;12.48;;
20022;SDS011;10172;42.054;24.546;2023-05-14T12:29:15;13.68;;;10.00;;
20022;SDS011;10172;42.054;24.546;2023-05-14T12:31:44;16.80;;;10.23;;
20022;SDS011;10172;42.054;24.546;2023-05-14T12:34:11;15.30;;;10.18;;
20022;SDS011;10172;42.054;24.546;2023-05-14T12:36:37;19.83;;;11.38;;
20022;SDS011;10172;42.054;24.546;2023-05-14T12:39:02;13.75;;;10.35;;
20022;SDS011;10172;42.054;24.546;2023-05-14T12:41:31;16.20;;;10.65;;
20022;SDS011;10172;42.054;24.546;2023-05-14T12:43:57;17.67;;;11.02;;
20022;SDS011;10172;42.054;24.546;2023-05-14T12:46:24;19.80;;;10.73;;
20022;SDS011;10172;42.054;24.546;2023-05-14T12:48:50;14.50;;;9.43;;
20022;SDS011;10172;42.054;24.546;2023-05-14T12:51:16;18.73;;;10.27;;
20022;SDS011;10172;42.054;24.546;2023-05-14T12:53:42;17.08;;;10.05;;
20022;SDS011;10172;42.054;24.546;2023-05-14T12:56:07;18.25;;;11.00;;
20022;SDS011;10172;42.054;24.546;2023-05-14T12:58:33;16.30;;;10.90;;
20022;SDS011;10172;42.054;24.546;2023-05-14T13:00:58;20.38;;;11.57;;
20022;SDS011;10172;42.054;24.546;2023-05-14T13:03:24;20.17;;;10.65;;
20022;SDS011;10172;42.054;24.546;2023-05-14T13:05:50;18.70;;;12.05;;
20022;SDS011;10172;42.054;24.546;2023-05-14T13:08:17;21.60;;;15.02;;
20022;SDS011;10172;42.054;24.546;2023-05-14T13:10:42;17.00;;;11.32;;
20022;SDS011;10172;42.054;24.546;2023-05-14T13:13:09;18.40;;;11.02;;
20022;SDS011;10172;42.054;24.546;2023-05-14T13:15:36;21.10;;;10.65;;
20022;SDS011;10172;42.054;24.546;2023-05-14T13:18:02;19.20;;;10.85;;
20022;SDS011;10172;42.054;24.546;2023-05-14T13:20:28;17.05;;;12.10;;
20022;SDS011;10172;42.054;24.546;2023-05-14T13:22:55;21.60;;;12.68;;
20022;SDS011;10172;42.054;24.546;2023-05-14T13:25:21;17.98;;;11.32;;
20022;SDS011;10172;42.054;24.546;2023-05-14T13:27:46;24.27;;;12.73;;
20022;SDS011;10172;42.054;24.546;2023-05-14T13:30:15;134.65;;;65.63;;
20022;SDS011;10172;42.054;24.546;2023-05-14T13:32:44;27.83;;;15.93;;
20022;SDS011;10172;42.054;24.546;2023-05-14T13:35:10;17.58;;;11.27;;
20022;SDS011;10172;42.054;24.546;2023-05-14T13:37:36;22.05;;;11.77;;
20022;SDS011;10172;42.054;24.546;2023-05-14T13:40:01;21.73;;;13.85;;
20022;SDS011;10172;42.054;24.546;2023-05-14T13:42:33;19.27;;;11.57;;
20022;SDS011;10172;42.054;24.546;2023-05-14T13:44:59;23.95;;;12.88;;
20022;SDS011;10172;42.054;24.546;2023-05-14T13:47:25;22.45;;;13.13;;
20022;SDS011;10172;42.054;24.546;2023-05-14T13:49:51;22.35;;;13.55;;
20022;SDS011;10172;42.054;24.546;2023-05-14T13:52:17;21.00;;;13.40;;
20022;SDS011;10172;42.054;24.546;2023-05-14T13:54:43;22.33;;;13.20;;
20022;SDS011;10172;42.054;24.546;2023-05-14T13:57:08;20.27;;;12.30;;
20022;SDS011;10172;42.054;24.546;2023-05-14T13:59:34;20.98;;;12.10;;
20022;SDS011;10172;42.054;24.546;2023-05-14T14:02:00;19.92;;;11.70;;
20022;SDS011;10172;42.054;24.546;2023-05-14T14:04:25;22.45;;;12.13;;
20022;SDS011;10172;42.054;24.546;2023-05-14T14:06:53;31.50;;;16.55;;
20022;SDS011;10172;42.054;24.546;2023-05-14T14:09:19;24.40;;;12.93;;
20022;SDS011;10172;42.054;24.546;2023-05-14T14:11:45;20.50;;;12.27;;
20022;SDS011;10172;42.054;24.546;2023-05-14T14:14:10;134.65;;;51.33;;
20022;SDS011;10172;42.054;24.546;2023-05-14T14:16:36;73.88;;;31.50;;
20022;SDS011;10172;42.054;24.546;2023-05-14T14:19:01;122.55;;;48.72;;
20022;SDS011;10172;42.054;24.546;2023-05-14T14:21:27;215.93;;;79.30;;
20022;SDS011;10172;42.054;24.546;2023-05-14T14:23:52;348.40;;;126.80;;
20022;SDS011;10172;42.054;24.546;2023-05-14T14:26:18;320.13;;;114.55;;
20022;SDS011;10172;42.054;24.546;2023-05-14T14:28:43;44.60;;;22.13;;
20022;SDS011;10172;42.054;24.546;2023-05-14T14:31:09;26.73;;;14.55;;
20022;SDS011;10172;42.054;24.546;2023-05-14T14:33:35;20.55;;;12.90;;
20022;SDS011;10172;42.054;24.546;2023-05-14T14:36:00;19.17;;;11.82;;
20022;SDS011;10172;42.054;24.546;2023-05-14T14:38:25;20.58;;;11.48;;